Time;durP1;ratioP1;P1;durP2;ratioP2;P2;SDS_P1;SDS_P2;PMS_P1;PMS_P2;Temp;Humidity;BMP_temperature;BMP_pressure;BME280_temperature;BME280_humidity;BME280_pressure;Samples;Min_cycle;Max_cycle;Signal;HPM_P1;HPM_P2
2022/03/03 00:01:56;;;;;;;172.65;82.93;;;;;;;;;;5055132;28;20021;-60
2022/03/03 00:04:21;;;;;;;172.13;79.32;;;;;;;;;;5054834;28;20033;-59
2022/03/03 00:06:47;;;;;;;191.48;89.85;;;;;;;;;;5055035;28;20021;-60
2022/03/03 00:09:12;;;;;;;191.65;90.05;;;;;;;;;;5054972;28;20029;-60
2022/03/03 00:11:38;;;;;;;185.45;90.78;;;;;;;;;;5053706;28;20024;-60
2022/03/03 00:14:05;;;;;;;178.43;87.00;;;;;;;;;;5055124;28;20182;-64
2022/03/03 00:16:30;;;;;;;198.60;94.07;;;;;;;;;;5054819;28;20094;-65
2022/03/03 00:18:56;;;;;;;191.10;90.43;;;;;;;;;;5054852;28;20072;-65
2022/03/03 00:21:21;;;;;;;163.85;80.82;;;;;;;;;;5054571;28;20056;-65
2022/03/03 00:23:47;;;;;;;151.75;75.35;;;;;;;;;;5054541;28;20028;-65
2022/03/03 00:26:12;;;;;;;143.82;71.70;;;;;;;;;;5054454;28;20092;-65
2022/03/03 00:28:38;;;;;;;146.15;71.53;;;;;;;;;;5054265;28;20041;-65
2022/03/03 00:31:04;;;;;;;146.07;71.30;;;;;;;;;;5054628;28;20025;-65
2022/03/03 00:33:29;;;;;;;168.02;84.20;;;;;;;;;;5054684;28;20027;-64
2022/03/03 00:35:55;;;;;;;178.13;87.93;;;;;;;;;;5054368;28;20469;-65
2022/03/03 00:38:20;;;;;;;181.85;86.78;;;;;;;;;;5054402;28;20545;-65
2022/03/03 00:40:46;;;;;;;178.77;87.80;;;;;;;;;;5054230;28;20056;-65
2022/03/03 00:43:12;;;;;;;186.32;92.07;;;;;;;;;;5054274;28;20094;-65
2022/03/03 00:45:38;;;;;;;190.48;92.40;;;;;;;;;;5054158;28;20027;-65
2022/03/03 00:48:04;;;;;;;188.15;86.25;;;;;;;;;;5054346;28;20036;-65
2022/03/03 00:50:30;;;;;;;126.72;61.63;;;;;;;;;;5053709;28;20052;-65
2022/03/03 00:52:56;;;;;;;90.25;46.17;;;;;;;;;;5053954;28;20057;-65
2022/03/03 00:55:22;;;;;;;96.07;47.92;;;;;;;;;;5054346;28;20063;-60
2022/03/03 00:57:48;;;;;;;114.80;57.15;;;;;;;;;;5054128;28;20057;-64
2022/03/03 01:00:13;;;;;;;119.20;54.67;;;;;;;;;;5054191;28;20017;-65
2022/03/03 01:02:39;;;;;;;82.10;42.80;;;;;;;;;;5053980;28;20476;-65
2022/03/03 01:05:05;;;;;;;93.43;46.75;;;;;;;;;;5053998;28;20028;-65
2022/03/03 01:07:31;;;;;;;96.20;49.03;;;;;;;;;;5052687;28;20541;-65
2022/03/03 01:09:56;;;;;;;93.93;47.85;;;;;;;;;;5053844;28;20103;-65
2022/03/03 01:12:22;;;;;;;105.72;49.80;;;;;;;;;;5053686;28;20372;-64
2022/03/03 01:14:47;;;;;;;93.95;48.13;;;;;;;;;;5053617;28;20017;-65
2022/03/03 01:17:13;;;;;;;95.20;47.55;;;;;;;;;;5053105;28;20037;-65
2022/03/03 01:19:39;;;;;;;100.50;49.63;;;;;;;;;;5052133;28;20029;-65
2022/03/03 01:22:05;;;;;;;142.30;59.88;;;;;;;;;;5053693;28;20124;-65
2022/03/03 01:24:31;;;;;;;182.32;75.10;;;;;;;;;;5053330;28;20112;-65
2022/03/03 01:26:57;;;;;;;191.85;76.18;;;;;;;;;;5053412;28;20408;-60
2022/03/03 01:29:22;;;;;;;168.52;69.78;;;;;;;;;;5052281;28;20020;-60
2022/03/03 01:31:48;;;;;;;186.55;79.93;;;;;;;;;;5053355;28;20025;-60
2022/03/03 01:34:13;;;;;;;169.80;72.93;;;;;;;;;;5053321;28;20024;-60
2022/03/03 01:36:39;;;;;;;195.27;79.13;;;;;;;;;;5053643;28;20059;-60
2022/03/03 01:39:05;;;;;;;143.95;64.10;;;;;;;;;;5053266;28;20353;-60
2022/03/03 01:41:30;;;;;;;135.95;59.28;;;;;;;;;;5053508;28;20048;-60
2022/03/03 01:43:55;;;;;;;168.13;68.80;;;;;;;;;;5053168;28;20029;-65
2022/03/03 01:46:21;;;;;;;168.52;72.40;;;;;;;;;;5052897;28;20048;-60
2022/03/03 01:48:47;;;;;;;133.40;59.05;;;;;;;;;;5053336;28;20024;-64
2022/03/03 01:51:14;;;;;;;178.65;65.20;;;;;;;;;;5052969;28;20122;-65
2022/03/03 01:53:39;;;;;;;159.20;61.72;;;;;;;;;;5053010;28;20472;-66
2022/03/03 01:56:05;;;;;;;113.72;50.50;;;;;;;;;;5053253;28;20120;-66
2022/03/03 01:58:30;;;;;;;112.00;50.53;;;;;;;;;;5053144;28;20369;-65
2022/03/03 02:00:56;;;;;;;111.65;51.42;;;;;;;;;;5053046;28;20025;-65
2022/03/03 02:03:21;;;;;;;118.90;53.47;;;;;;;;;;5052943;28;20385;-65
2022/03/03 02:05:47;;;;;;;115.40;51.47;;;;;;;;;;5052781;28;20033;-65
2022/03/03 02:08:13;;;;;;;101.15;47.53;;;;;;;;;;5051579;28;20020;-65
2022/03/03 02:10:38;;;;;;;97.10;45.20;;;;;;;;;;5052802;28;20025;-65
2022/03/03 02:13:04;;;;;;;104.72;48.35;;;;;;;;;;5053023;28;20020;-65
2022/03/03 02:15:30;;;;;;;99.63;46.78;;;;;;;;;;5052986;28;20098;-65
2022/03/03 02:17:55;;;;;;;102.78;48.90;;;;;;;;;;5052958;28;20029;-65
2022/03/03 02:20:24;;;;;;;98.07;48.45;;;;;;;;;;5053045;28;20082;-64
2022/03/03 02:22:51;;;;;;;112.57;48.30;;;;;;;;;;5053079;28;20044;-65
2022/03/03 02:25:17;;;;;;;131.35;54.35;;;;;;;;;;5052906;28;20040;-65
2022/03/03 02:27:43;;;;;;;115.22;48.58;;;;;;;;;;5053836;28;20021;-59
2022/03/03 02:30:09;;;;;;;117.97;50.28;;;;;;;;;;5056485;28;20021;-59
2022/03/03 02:32:35;;;;;;;108.13;47.00;;;;;;;;;;5056068;28;20495;-59
2022/03/03 02:35:00;;;;;;;116.22;48.88;;;;;;;;;;5056620;28;20033;-59
2022/03/03 02:37:36;;;;;;;103.05;48.42;;;;;;;;;;5054696;28;20021;-59
2022/03/03 02:40:02;;;;;;;103.05;49.08;;;;;;;;;;5055686;28;20435;-60
2022/03/03 02:42:27;;;;;;;101.28;48.47;;;;;;;;;;5054767;28;20017;-59
2022/03/03 02:44:53;;;;;;;110.22;49.92;;;;;;;;;;5056048;28;20407;-65
2022/03/03 02:47:18;;;;;;;111.00;50.38;;;;;;;;;;5056253;28;20075;-65
2022/03/03 02:49:44;;;;;;;109.40;50.45;;;;;;;;;;5056020;28;20449;-59
2022/03/03 02:52:09;;;;;;;107.97;50.33;;;;;;;;;;5056305;28;20033;-65
2022/03/03 02:54:35;;;;;;;103.97;49.20;;;;;;;;;;5056083;28;20036;-64
2022/03/03 03:00:05;;;;;;;102.63;49.90;;;;;;;;;;5014301;28;20065;-64
2022/03/03 03:02:30;;;;;;;95.60;48.47;;;;;;;;;;5014546;28;20454;-64
2022/03/03 03:04:55;;;;;;;103.43;48.13;;;;;;;;;;5033122;28;20040;-64
2022/03/03 03:07:22;;;;;;;94.90;46.17;;;;;;;;;;5056075;28;20040;-64
2022/03/03 03:09:48;;;;;;;102.57;47.60;;;;;;;;;;5056184;28;20032;-64
2022/03/03 03:12:13;;;;;;;97.97;47.42;;;;;;;;;;5055999;28;20396;-64
2022/03/03 03:14:39;;;;;;;98.93;47.38;;;;;;;;;;5055782;28;20500;-64
2022/03/03 03:17:04;;;;;;;101.30;46.83;;;;;;;;;;5055853;28;20052;-64
2022/03/03 03:19:29;;;;;;;94.50;46.17;;;;;;;;;;5055971;28;20390;-65
2022/03/03 03:21:55;;;;;;;94.55;47.50;;;;;;;;;;5055859;28;20469;-64
2022/03/03 03:24:20;;;;;;;100.82;46.28;;;;;;;;;;5055692;28;20037;-64
2022/03/03 03:26:46;;;;;;;93.80;46.17;;;;;;;;;;5055984;28;20028;-65
2022/03/03 03:29:11;;;;;;;89.75;44.53;;;;;;;;;;5055846;28;20032;-64
2022/03/03 03:31:37;;;;;;;91.95;44.97;;;;;;;;;;5055441;28;20054;-64
2022/03/03 03:34:02;;;;;;;93.90;44.05;;;;;;;;;;5054251;28;20039;-64
2022/03/03 03:36:28;;;;;;;100.35;48.05;;;;;;;;;;5055333;28;20160;-64
2022/03/03 03:38:53;;;;;;;99.43;47.17;;;;;;;;;;5055072;28;20083;-64
2022/03/03 03:41:19;;;;;;;95.55;45.30;;;;;;;;;;5055401;28;20350;-64
2022/03/03 03:43:44;;;;;;;91.15;45.38;;;;;;;;;;5055302;28;20045;-64
2022/03/03 03:46:10;;;;;;;85.50;44.15;;;;;;;;;;5055235;28;20021;-65
2022/03/03 03:48:35;;;;;;;88.30;44.05;;;;;;;;;;5055385;28;20021;-64
2022/03/03 03:51:01;;;;;;;85.70;43.10;;;;;;;;;;5055017;28;20037;-64
2022/03/03 03:53:27;;;;;;;91.47;46.38;;;;;;;;;;5055439;28;20040;-64
2022/03/03 03:55:52;;;;;;;92.15;45.30;;;;;;;;;;5055425;28;20381;-64
2022/03/03 03:58:17;;;;;;;86.97;43.92;;;;;;;;;;5055190;28;20044;-64
2022/03/03 04:00:43;;;;;;;85.05;43.38;;;;;;;;;;5055183;28;20032;-65
2022/03/03 04:03:09;;;;;;;92.40;45.15;;;;;;;;;;5055161;28;20075;-65
2022/03/03 04:05:35;;;;;;;89.60;44.65;;;;;;;;;;5055100;28;20531;-59
2022/03/03 04:08:00;;;;;;;93.85;46.80;;;;;;;;;;5054913;28;20079;-59
2022/03/03 04:10:28;;;;;;;90.45;44.50;;;;;;;;;;5052927;28;20491;-59
2022/03/03 04:12:54;;;;;;;89.03;44.88;;;;;;;;;;5055005;28;20021;-65
2022/03/03 04:15:20;;;;;;;92.35;45.92;;;;;;;;;;5054984;28;20028;-65
2022/03/03 04:17:45;;;;;;;98.00;45.67;;;;;;;;;;5054573;28;20029;-64
2022/03/03 04:20:11;;;;;;;87.32;45.20;;;;;;;;;;5054722;28;20017;-60
2022/03/03 04:22:37;;;;;;;95.30;47.55;;;;;;;;;;5054380;28;20507;-59
2022/03/03 04:25:03;;;;;;;96.95;48.55;;;;;;;;;;5054372;28;20456;-59
2022/03/03 04:27:29;;;;;;;92.40;46.08;;;;;;;;;;5054273;28;20032;-59
2022/03/03 04:29:54;;;;;;;91.40;46.25;;;;;;;;;;5054302;28;20025;-59
2022/03/03 04:32:20;;;;;;;98.90;48.60;;;;;;;;;;5054479;28;20477;-64
2022/03/03 04:34:45;;;;;;;96.82;49.72;;;;;;;;;;5053157;28;20468;-65
2022/03/03 04:37:11;;;;;;;103.55;50.28;;;;;;;;;;5054368;28;20033;-65
2022/03/03 04:39:36;;;;;;;99.72;49.72;;;;;;;;;;5053241;28;20025;-65
2022/03/03 04:42:02;;;;;;;108.55;49.03;;;;;;;;;;5054101;28;20111;-59
2022/03/03 04:44:28;;;;;;;96.13;49.88;;;;;;;;;;5053923;28;20104;-60
2022/03/03 04:46:53;;;;;;;93.90;48.88;;;;;;;;;;5054136;28;20699;-60
2022/03/03 04:49:19;;;;;;;90.95;47.10;;;;;;;;;;5053624;28;20083;-60
2022/03/03 04:51:44;;;;;;;97.47;48.92;;;;;;;;;;5053466;28;20029;-65
2022/03/03 04:54:10;;;;;;;96.13;50.80;;;;;;;;;;5054067;28;20025;-65
2022/03/03 04:56:37;;;;;;;97.57;48.92;;;;;;;;;;5054044;28;20049;-65
2022/03/03 04:59:03;;;;;;;103.35;54.05;;;;;;;;;;5053950;28;20029;-65
2022/03/03 05:01:28;;;;;;;139.55;76.20;;;;;;;;;;5053621;28;20526;-65
2022/03/03 05:03:54;;;;;;;110.00;57.38;;;;;;;;;;5053654;28;20041;-65
2022/03/03 05:06:20;;;;;;;101.50;53.30;;;;;;;;;;5053820;28;20048;-65
2022/03/03 05:08:45;;;;;;;96.28;51.97;;;;;;;;;;5053078;28;20033;-73
2022/03/03 05:11:11;;;;;;;126.72;68.40;;;;;;;;;;5053682;28;20024;-69
2022/03/03 05:13:37;;;;;;;108.18;56.22;;;;;;;;;;5053112;28;20052;-74
2022/03/03 05:16:03;;;;;;;110.57;55.50;;;;;;;;;;5052432;28;20021;-69
2022/03/03 05:18:29;;;;;;;101.25;53.72;;;;;;;;;;5051971;28;20055;-70
2022/03/03 05:20:55;;;;;;;113.93;57.53;;;;;;;;;;5053566;28;20025;-69
2022/03/03 05:23:21;;;;;;;126.32;67.97;;;;;;;;;;5053360;28;20064;-70
2022/03/03 05:25:46;;;;;;;116.95;57.65;;;;;;;;;;5052933;28;20072;-70
2022/03/03 05:28:12;;;;;;;115.15;60.58;;;;;;;;;;5053429;28;20163;-71
2022/03/03 05:30:37;;;;;;;112.07;59.20;;;;;;;;;;5053125;28;20092;-70
2022/03/03 05:33:03;;;;;;;107.38;55.85;;;;;;;;;;5052226;28;20025;-71
2022/03/03 05:35:28;;;;;;;101.28;52.55;;;;;;;;;;5053310;28;20013;-71
2022/03/03 05:37:54;;;;;;;104.82;52.42;;;;;;;;;;5052207;28;20037;-71
2022/03/03 05:40:20;;;;;;;101.32;53.47;;;;;;;;;;5052113;28;20020;-70
2022/03/03 05:42:45;;;;;;;110.18;54.97;;;;;;;;;;5053480;28;20083;-71
2022/03/03 05:45:11;;;;;;;181.82;97.93;;;;;;;;;;5053236;28;20103;-70
2022/03/03 05:47:37;;;;;;;126.63;68.70;;;;;;;;;;5052962;28;20443;-70
2022/03/03 05:50:05;;;;;;;121.55;66.45;;;;;;;;;;5052484;28;20041;-70
2022/03/03 05:52:31;;;;;;;128.73;65.75;;;;;;;;;;5052856;28;20033;-70
2022/03/03 05:54:56;;;;;;;91.95;47.08;;;;;;;;;;5052774;28;20078;-70
2022/03/03 05:57:25;;;;;;;87.38;40.95;;;;;;;;;;5052799;28;20025;-70
2022/03/03 05:59:51;;;;;;;133.80;66.55;;;;;;;;;;5052728;28;20033;-70
2022/03/03 06:02:20;;;;;;;93.20;46.25;;;;;;;;;;5054707;28;20021;-70
2022/03/03 06:04:46;;;;;;;81.60;41.30;;;;;;;;;;5056875;28;20033;-70
2022/03/03 06:07:12;;;;;;;79.63;40.83;;;;;;;;;;5056724;28;20028;-70
2022/03/03 06:09:38;;;;;;;79.10;39.67;;;;;;;;;;5056744;28;20044;-70
2022/03/03 06:12:09;;;;;;;114.95;56.47;;;;;;;;;;5056811;28;20017;-70
2022/03/03 06:14:46;;;;;;;113.18;56.30;;;;;;;;;;5056737;28;20025;-70
2022/03/03 06:17:13;;;;;;;118.30;58.28;;;;;;;;;;5056605;28;20033;-70
2022/03/03 06:19:42;;;;;;;111.97;56.42;;;;;;;;;;5056183;28;20040;-70
2022/03/03 06:22:08;;;;;;;115.75;55.97;;;;;;;;;;5056672;28;20496;-70
2022/03/03 06:24:34;;;;;;;116.32;58.03;;;;;;;;;;5056624;28;20465;-70
2022/03/03 06:27:01;;;;;;;121.80;60.65;;;;;;;;;;5056385;28;20021;-70
2022/03/03 06:29:27;;;;;;;121.47;64.03;;;;;;;;;;5056326;28;20021;-70
2022/03/03 06:31:53;;;;;;;129.30;67.32;;;;;;;;;;5056346;28;20063;-70
2022/03/03 06:34:20;;;;;;;143.48;72.93;;;;;;;;;;5056352;28;20102;-70
2022/03/03 06:36:46;;;;;;;140.60;73.45;;;;;;;;;;5056347;28;20118;-70
2022/03/03 06:39:12;;;;;;;140.27;74.45;;;;;;;;;;5055091;28;20052;-70
2022/03/03 06:41:37;;;;;;;145.13;77.93;;;;;;;;;;5056142;28;20033;-70
2022/03/03 06:44:02;;;;;;;148.40;79.72;;;;;;;;;;5056132;28;20020;-70
2022/03/03 06:46:28;;;;;;;134.90;73.75;;;;;;;;;;5056105;28;20025;-70
2022/03/03 06:48:53;;;;;;;147.35;78.45;;;;;;;;;;5055878;28;20358;-69
2022/03/03 06:51:22;;;;;;;166.35;92.30;;;;;;;;;;5055993;28;20032;-70
2022/03/03 06:53:49;;;;;;;191.40;101.75;;;;;;;;;;5055986;28;20037;-70
2022/03/03 06:56:15;;;;;;;187.93;106.03;;;;;;;;;;5055909;28;20389;-70
2022/03/03 06:58:40;;;;;;;196.65;99.57;;;;;;;;;;5055836;28;20104;-70
2022/03/03 07:01:10;;;;;;;193.57;92.35;;;;;;;;;;5055786;28;20036;-70
2022/03/03 07:03:36;;;;;;;156.57;80.78;;;;;;;;;;5054449;28;20499;-70
2022/03/03 07:06:02;;;;;;;143.38;72.65;;;;;;;;;;5055694;28;20025;-70
2022/03/03 07:08:28;;;;;;;131.93;64.35;;;;;;;;;;5055675;28;20013;-70
2022/03/03 07:10:54;;;;;;;115.53;59.45;;;;;;;;;;5055755;28;20029;-70
2022/03/03 07:13:19;;;;;;;112.85;57.10;;;;;;;;;;5054581;28;20106;-68
2022/03/03 07:15:49;;;;;;;106.50;57.20;;;;;;;;;;5055831;28;20032;-68
2022/03/03 07:18:24;;;;;;;102.43;54.58;;;;;;;;;;5055484;28;20079;-68
2022/03/03 07:21:08;;;;;;;87.80;45.58;;;;;;;;;;5055556;28;20033;-68
2022/03/03 07:23:37;;;;;;;99.47;51.80;;;;;;;;;;5055725;28;20377;-68
2022/03/03 07:26:05;;;;;;;94.90;49.67;;;;;;;;;;5055791;28;20037;-68
2022/03/03 07:28:31;;;;;;;98.95;49.95;;;;;;;;;;5055574;28;20346;-68
2022/03/03 07:30:59;;;;;;;95.15;49.67;;;;;;;;;;5054398;28;20424;-68
2022/03/03 07:33:42;;;;;;;93.35;49.45;;;;;;;;;;5055566;28;20033;-68
2022/03/03 07:36:09;;;;;;;94.32;49.78;;;;;;;;;;5052829;28;20388;-68
2022/03/03 07:38:37;;;;;;;97.90;50.50;;;;;;;;;;5054741;28;20032;-68
2022/03/03 07:41:03;;;;;;;100.57;50.92;;;;;;;;;;5055135;28;20052;-68
2022/03/03 07:43:29;;;;;;;93.88;49.97;;;;;;;;;;5055096;28;20021;-68
2022/03/03 07:45:54;;;;;;;95.78;50.17;;;;;;;;;;5055101;28;20036;-68
2022/03/03 07:48:22;;;;;;;95.05;48.60;;;;;;;;;;5054913;28;20404;-67
2022/03/03 07:50:47;;;;;;;82.78;43.67;;;;;;;;;;5053431;28;20052;-68
2022/03/03 07:53:13;;;;;;;74.78;42.03;;;;;;;;;;5053585;28;20108;-67
2022/03/03 07:55:41;;;;;;;73.55;39.00;;;;;;;;;;5054727;28;20029;-67
2022/03/03 07:58:10;;;;;;;77.93;41.70;;;;;;;;;;5054874;28;20055;-67
2022/03/03 08:00:36;;;;;;;209.27;115.28;;;;;;;;;;5054844;28;20040;-68
2022/03/03 08:03:05;;;;;;;236.38;136.45;;;;;;;;;;5053410;28;20147;-67
2022/03/03 08:05:31;;;;;;;163.43;88.72;;;;;;;;;;5054706;28;20033;-67
2022/03/03 08:07:57;;;;;;;99.20;49.70;;;;;;;;;;5054688;28;20021;-67
2022/03/03 08:10:25;;;;;;;103.82;52.53;;;;;;;;;;5054102;28;20573;-67
2022/03/03 08:12:53;;;;;;;179.38;84.57;;;;;;;;;;5054596;28;20021;-67
2022/03/03 08:15:19;;;;;;;97.20;49.33;;;;;;;;;;5054451;28;20032;-67
2022/03/03 08:17:48;;;;;;;112.75;52.72;;;;;;;;;;5054282;28;20400;-67
2022/03/03 08:20:13;;;;;;;99.80;47.08;;;;;;;;;;5054482;28;20029;-67
2022/03/03 08:22:39;;;;;;;92.55;47.47;;;;;;;;;;5054315;28;20075;-67
2022/03/03 08:25:08;;;;;;;87.03;47.25;;;;;;;;;;5054152;28;20036;-67
2022/03/03 08:27:35;;;;;;;269.50;133.18;;;;;;;;;;5054198;28;20021;-67
2022/03/03 08:30:00;;;;;;;285.27;147.18;;;;;;;;;;5054108;28;20025;-67
2022/03/03 08:32:31;;;;;;;114.78;56.72;;;;;;;;;;5053950;28;20020;-67
2022/03/03 08:35:13;;;;;;;90.30;48.53;;;;;;;;;;5054111;28;20029;-67
2022/03/03 08:37:39;;;;;;;139.43;75.70;;;;;;;;;;5054097;28;20032;-67
2022/03/03 08:40:07;;;;;;;102.20;56.45;;;;;;;;;;5054022;28;20111;-67
2022/03/03 08:42:36;;;;;;;99.68;57.47;;;;;;;;;;5053997;28;20454;-67
2022/03/03 08:45:04;;;;;;;79.47;43.47;;;;;;;;;;5053831;28;20041;-67
2022/03/03 08:47:31;;;;;;;78.13;38.72;;;;;;;;;;5054061;28;20013;-67
2022/03/03 08:49:58;;;;;;;76.15;39.33;;;;;;;;;;5053437;28;20037;-67
2022/03/03 08:52:23;;;;;;;80.20;40.85;;;;;;;;;;5052624;28;20100;-67
2022/03/03 08:54:49;;;;;;;74.00;41.10;;;;;;;;;;5053706;28;20576;-67
2022/03/03 08:57:14;;;;;;;74.97;40.85;;;;;;;;;;5053697;28;20028;-67
2022/03/03 08:59:39;;;;;;;69.75;37.58;;;;;;;;;;5053626;28;20412;-67
2022/03/03 09:02:05;;;;;;;65.80;37.13;;;;;;;;;;5053604;28;20036;-67
2022/03/03 09:04:30;;;;;;;52.08;27.40;;;;;;;;;;5052818;28;20025;-67
2022/03/03 09:06:56;;;;;;;61.70;33.10;;;;;;;;;;5053705;28;20025;-67
2022/03/03 09:09:21;;;;;;;59.50;28.70;;;;;;;;;;5053723;28;20021;-67
2022/03/03 09:11:47;;;;;;;46.40;24.83;;;;;;;;;;5053889;28;20040;-67
2022/03/03 09:14:12;;;;;;;41.53;22.67;;;;;;;;;;5053985;28;20028;-67
2022/03/03 09:16:38;;;;;;;46.10;24.02;;;;;;;;;;5053753;28;20127;-67
2022/03/03 09:19:03;;;;;;;49.53;25.25;;;;;;;;;;5053318;28;20035;-67
2022/03/03 09:21:29;;;;;;;46.95;24.42;;;;;;;;;;5053262;28;20123;-67
2022/03/03 09:23:54;;;;;;;46.58;24.48;;;;;;;;;;5053228;28;20029;-67
2022/03/03 09:26:20;;;;;;;42.53;22.88;;;;;;;;;;5053290;28;20441;-67
2022/03/03 09:28:46;;;;;;;40.35;22.02;;;;;;;;;;5053110;28;20025;-68
2022/03/03 09:31:11;;;;;;;38.88;22.50;;;;;;;;;;5053076;28;20143;-68
2022/03/03 09:33:36;;;;;;;51.47;28.00;;;;;;;;;;5053114;28;20013;-68
2022/03/03 09:36:02;;;;;;;75.03;37.72;;;;;;;;;;5052768;28;20473;-68
2022/03/03 09:38:28;;;;;;;218.32;95.13;;;;;;;;;;5053000;28;20514;-68
2022/03/03 09:40:53;;;;;;;132.60;68.35;;;;;;;;;;5053047;28;20074;-68
2022/03/03 09:43:19;;;;;;;41.15;24.63;;;;;;;;;;5052754;28;20017;-68
2022/03/03 09:45:44;;;;;;;41.35;23.05;;;;;;;;;;5051546;28;20388;-68
2022/03/03 09:48:10;;;;;;;34.90;20.70;;;;;;;;;;5052884;28;20024;-68
2022/03/03 09:50:37;;;;;;;145.13;78.03;;;;;;;;;;5052350;28;20381;-66
2022/03/03 09:53:07;;;;;;;164.40;93.00;;;;;;;;;;5052988;28;20477;-68
2022/03/03 09:55:32;;;;;;;47.17;29.35;;;;;;;;;;5052935;28;20522;-68
2022/03/03 09:57:58;;;;;;;216.23;150.38;;;;;;;;;;5052726;28;20033;-68
2022/03/03 10:00:23;;;;;;;92.90;65.70;;;;;;;;;;5052468;28;20029;-68
2022/03/03 10:02:56;;;;;;;32.47;20.17;;;;;;;;;;5052848;28;20079;-68
2022/03/03 10:05:29;;;;;;;31.30;18.67;;;;;;;;;;5052639;28;20112;-68
2022/03/03 10:08:01;;;;;;;93.70;79.82;;;;;;;;;;5052796;28;20029;-68
2022/03/03 10:10:26;;;;;;;59.40;46.90;;;;;;;;;;5052796;28;20115;-68
2022/03/03 10:12:55;;;;;;;27.88;16.23;;;;;;;;;;5052741;28;20044;-68
2022/03/03 10:15:23;;;;;;;27.73;16.98;;;;;;;;;;5052716;28;20032;-67
2022/03/03 10:17:54;;;;;;;26.00;14.75;;;;;;;;;;5052654;28;20035;-68
2022/03/03 10:20:19;;;;;;;62.33;31.33;;;;;;;;;;5052736;28;20029;-67
2022/03/03 10:22:47;;;;;;;538.15;291.50;;;;;;;;;;5052674;28;20108;-67
2022/03/03 10:25:13;;;;;;;316.60;147.10;;;;;;;;;;5052581;28;20035;-68
2022/03/03 10:27:38;;;;;;;494.40;227.18;;;;;;;;;;5052507;28;20473;-68
2022/03/03 10:30:06;;;;;;;45.85;25.83;;;;;;;;;;5052462;28;20033;-68
2022/03/03 10:32:35;;;;;;;24.13;15.90;;;;;;;;;;5052548;28;20114;-67
2022/03/03 10:35:21;;;;;;;24.30;14.02;;;;;;;;;;5052581;28;20052;-68
2022/03/03 10:37:47;;;;;;;24.60;15.95;;;;;;;;;;5051180;28;20037;-68
2022/03/03 10:40:14;;;;;;;385.20;133.60;;;;;;;;;;5052476;28;20116;-68
2022/03/03 10:42:48;;;;;;;871.40;308.73;;;;;;;;;;5052443;28;20127;-68
2022/03/03 10:45:19;;;;;;;227.93;85.35;;;;;;;;;;5052330;28;20041;-68
2022/03/03 10:48:03;;;;;;;24.25;14.55;;;;;;;;;;5052446;28;20039;-68
2022/03/03 10:50:49;;;;;;;724.00;240.13;;;;;;;;;;5054319;28;20041;-68
2022/03/03 10:53:18;;;;;;;357.60;104.55;;;;;;;;;;5056029;28;20064;-68
2022/03/03 10:56:04;;;;;;;43.50;18.88;;;;;;;;;;5056075;28;20036;-68
2022/03/03 10:58:48;;;;;;;193.18;59.83;;;;;;;;;;5055948;28;20029;-68
2022/03/03 11:01:15;;;;;;;30.50;17.58;;;;;;;;;;5055987;28;20029;-68
2022/03/03 11:03:41;;;;;;;44.42;31.88;;;;;;;;;;5055820;28;20056;-68
2022/03/03 11:06:06;;;;;;;91.40;38.67;;;;;;;;;;5055859;28;20064;-68
2022/03/03 11:08:32;;;;;;;263.10;76.80;;;;;;;;;;5055751;28;20017;-68
2022/03/03 11:10:58;;;;;;;476.08;120.95;;;;;;;;;;5055722;28;20140;-67
2022/03/03 11:13:24;;;;;;;746.67;205.02;;;;;;;;;;5055672;28;20028;-68
2022/03/03 11:15:52;;;;;;;1037.28;316.70;;;;;;;;;;5055678;28;20033;-68
2022/03/03 11:18:18;;;;;;;912.65;286.17;;;;;;;;;;5055532;28;20025;-68
2022/03/03 11:20:50;;;;;;;96.30;46.17;;;;;;;;;;5055604;28;20025;-68
2022/03/03 11:23:16;;;;;;;1527.35;472.60;;;;;;;;;;5055439;28;20469;-68
2022/03/03 11:25:42;;;;;;;43.95;24.73;;;;;;;;;;5055516;28;20102;-68
2022/03/03 11:28:08;;;;;;;45.47;22.23;;;;;;;;;;5055366;28;20061;-68
2022/03/03 11:30:34;;;;;;;227.55;64.80;;;;;;;;;;5055437;28;20020;-68
2022/03/03 11:33:18;;;;;;;30.02;18.77;;;;;;;;;;5055322;28;20487;-68
2022/03/03 11:35:48;;;;;;;200.02;66.50;;;;;;;;;;5055311;28;20024;-68
2022/03/03 11:38:14;;;;;;;49.72;23.50;;;;;;;;;;5055289;28;20499;-67
2022/03/03 11:40:50;;;;;;;53.75;27.55;;;;;;;;;;5055134;28;20487;-68
2022/03/03 11:43:15;;;;;;;29.02;17.92;;;;;;;;;;5055155;28;20396;-68
2022/03/03 11:45:48;;;;;;;29.85;18.83;;;;;;;;;;5055291;28;20020;-68
2022/03/03 11:48:15;;;;;;;28.85;17.98;;;;;;;;;;5054801;28;20029;-67
2022/03/03 11:50:41;;;;;;;27.45;15.90;;;;;;;;;;5055042;28;20045;-68
2022/03/03 11:53:06;;;;;;;55.10;28.88;;;;;;;;;;5055102;28;20029;-68
2022/03/03 11:55:37;;;;;;;308.15;149.77;;;;;;;;;;5055032;28;20067;-67
2022/03/03 11:58:06;;;;;;;101.03;55.90;;;;;;;;;;5054985;28;20070;-67
2022/03/03 12:00:38;;;;;;;30.17;18.83;;;;;;;;;;5054535;28;20024;-67
2022/03/03 12:03:05;;;;;;;23.02;15.93;;;;;;;;;;5053557;28;20025;-67
2022/03/03 12:05:37;;;;;;;21.25;14.25;;;;;;;;;;5053511;28;20147;-68
2022/03/03 12:08:03;;;;;;;24.90;16.30;;;;;;;;;;5054674;28;20112;-67
2022/03/03 12:10:29;;;;;;;25.63;16.08;;;;;;;;;;5054640;28;20017;-67
2022/03/03 12:13:13;;;;;;;25.83;15.98;;;;;;;;;;5054662;28;20037;-67
2022/03/03 12:15:40;;;;;;;28.05;16.13;;;;;;;;;;5054613;28;20435;-67
2022/03/03 12:18:05;;;;;;;31.92;20.25;;;;;;;;;;5054523;28;20025;-68
2022/03/03 12:20:35;;;;;;;30.15;18.27;;;;;;;;;;5054649;28;20033;-67
2022/03/03 12:23:13;;;;;;;30.70;17.60;;;;;;;;;;5054483;28;20037;-68
2022/03/03 12:25:47;;;;;;;24.83;16.95;;;;;;;;;;5054417;28;20044;-68
2022/03/03 12:28:16;;;;;;;27.65;18.25;;;;;;;;;;5054272;28;20515;-68
2022/03/03 12:30:45;;;;;;;26.10;17.85;;;;;;;;;;5054205;28;20059;-68
2022/03/03 12:33:26;;;;;;;23.85;16.75;;;;;;;;;;5054267;28;20028;-68
2022/03/03 12:35:57;;;;;;;26.42;16.80;;;;;;;;;;5054141;28;20024;-68
2022/03/03 12:38:22;;;;;;;25.52;16.85;;;;;;;;;;5054009;28;20029;-68
2022/03/03 12:40:49;;;;;;;28.83;17.63;;;;;;;;;;5054034;28;20078;-68
2022/03/03 12:43:16;;;;;;;30.65;20.08;;;;;;;;;;5053776;28;20465;-68
2022/03/03 12:45:43;;;;;;;30.05;18.17;;;;;;;;;;5053763;28;20102;-68
2022/03/03 12:48:08;;;;;;;26.13;17.38;;;;;;;;;;5053736;28;20025;-68
2022/03/03 12:50:35;;;;;;;27.38;17.98;;;;;;;;;;5053640;28;20471;-68
2022/03/03 12:53:10;;;;;;;22.30;13.27;;;;;;;;;;5053807;28;20108;-68
2022/03/03 12:55:37;;;;;;;25.33;17.23;;;;;;;;;;5052520;28;20452;-68
2022/03/03 12:58:04;;;;;;;23.58;15.50;;;;;;;;;;5053715;28;20017;-68
2022/03/03 13:00:40;;;;;;;23.83;15.43;;;;;;;;;;5053579;28;20036;-68
2022/03/03 13:03:06;;;;;;;25.80;16.73;;;;;;;;;;5053871;28;20120;-67
2022/03/03 13:05:31;;;;;;;29.73;18.40;;;;;;;;;;5052422;28;20104;-69
2022/03/03 13:07:58;;;;;;;25.75;16.75;;;;;;;;;;5053831;28;20044;-65
2022/03/03 13:10:23;;;;;;;53.03;32.60;;;;;;;;;;5053856;28;20021;-66
2022/03/03 13:12:52;;;;;;;26.98;19.70;;;;;;;;;;5053071;28;20029;-73
2022/03/03 13:15:25;;;;;;;26.25;17.65;;;;;;;;;;5054010;28;20029;-63
2022/03/03 13:17:58;;;;;;;23.02;16.85;;;;;;;;;;5054188;28;20052;-63
2022/03/03 13:20:24;;;;;;;20.88;15.50;;;;;;;;;;5053814;28;20039;-63
2022/03/03 13:22:49;;;;;;;25.05;16.65;;;;;;;;;;5053661;28;20021;-63
2022/03/03 13:25:15;;;;;;;28.58;15.95;;;;;;;;;;5053232;28;20033;-63
2022/03/03 13:27:47;;;;;;;22.25;15.45;;;;;;;;;;5053181;28;20017;-63
2022/03/03 13:30:13;;;;;;;22.73;14.70;;;;;;;;;;5053199;28;20029;-63
2022/03/03 13:32:45;;;;;;;22.50;14.93;;;;;;;;;;5053441;28;20074;-63
2022/03/03 13:35:11;;;;;;;25.05;15.60;;;;;;;;;;5053023;28;20032;-63
2022/03/03 13:37:37;;;;;;;26.05;16.25;;;;;;;;;;5053373;28;20059;-63
2022/03/03 13:40:13;;;;;;;24.95;16.45;;;;;;;;;;5053575;28;20072;-63
2022/03/03 13:42:39;;;;;;;22.63;15.85;;;;;;;;;;5053379;28;20029;-63
2022/03/03 13:45:05;;;;;;;23.88;16.15;;;;;;;;;;5051895;28;20131;-63
2022/03/03 13:47:34;;;;;;;42.35;20.85;;;;;;;;;;5053231;28;20087;-67
2022/03/03 13:50:00;;;;;;;26.50;18.23;;;;;;;;;;5052659;28;20037;-67
2022/03/03 13:52:33;;;;;;;23.90;16.52;;;;;;;;;;5053197;28;20474;-67
2022/03/03 13:55:04;;;;;;;25.55;15.77;;;;;;;;;;5053400;28;20036;-67
2022/03/03 13:57:39;;;;;;;28.15;17.23;;;;;;;;;;5053116;28;20495;-67
2022/03/03 14:00:13;;;;;;;23.75;15.65;;;;;;;;;;5053265;28;20041;-67
2022/03/03 14:02:53;;;;;;;121.80;56.35;;;;;;;;;;5053449;28;20033;-67
2022/03/03 14:05:30;;;;;;;47.60;25.55;;;;;;;;;;5053110;28;20433;-67
2022/03/03 14:07:55;;;;;;;35.58;19.58;;;;;;;;;;5051984;28;20051;-67
2022/03/03 14:10:21;;;;;;;73.07;32.33;;;;;;;;;;5053148;28;20025;-67
2022/03/03 14:13:07;;;;;;;27.40;19.48;;;;;;;;;;5053061;28;20025;-66
2022/03/03 14:15:32;;;;;;;16.52;11.50;;;;;;;;;;5053026;28;20092;-66